createdAt,value
2023-03-24T00:01:16.159Z,85.64
2023-03-24T00:04:42.661Z,86.26
2023-03-24T00:08:05.165Z,85.30
2023-03-24T00:11:26.977Z,85.72
2023-03-24T00:14:50.145Z,86.01
2023-03-24T00:18:12.026Z,86.54
2023-03-24T00:21:33.737Z,86.47
2023-03-24T00:24:55.791Z,87.28
2023-03-24T00:28:17.969Z,87.29
2023-03-24T00:31:41.445Z,87.54
2023-03-24T00:35:03.917Z,87.61
2023-03-24T00:38:26.631Z,87.74
2023-03-24T00:41:49.285Z,87.47
2023-03-24T00:45:11.630Z,87.13
2023-03-24T00:48:35.494Z,87.37
2023-03-24T00:51:58.312Z,87.17
2023-03-24T00:55:21.484Z,87.68
2023-03-24T00:58:43.468Z,87.21
2023-03-24T01:02:05.279Z,87.27
2023-03-24T01:05:31.125Z,87.46
2023-03-24T01:08:54.255Z,87.72
2023-03-24T01:12:18.990Z,87.44
2023-03-24T01:15:40.566Z,87.52
2023-03-24T01:19:02.282Z,88.21
2023-03-24T01:22:29.835Z,88.15
2023-03-24T01:25:52.112Z,88.20
2023-03-24T01:29:13.620Z,88.39
2023-03-24T01:32:37.472Z,88.36
2023-03-24T01:35:59.475Z,88.17
2023-03-24T01:39:22.829Z,88.35
2023-03-24T01:42:45.048Z,88.06
2023-03-24T01:46:17.123Z,88.00
2023-03-24T01:49:43.267Z,88.02
2023-03-24T01:53:05.706Z,87.86
2023-03-24T01:56:33.229Z,87.38
2023-03-24T01:59:58.947Z,87.46
2023-03-24T02:04:00.268Z,86.40
2023-03-24T02:07:33.931Z,86.00
2023-03-24T02:10:56.726Z,86.00
2023-03-24T02:14:22.946Z,85.61
2023-03-24T02:18:08.186Z,85.38
2023-03-24T02:21:56.376Z,84.57
2023-03-24T02:25:54.436Z,84.50
2023-03-24T02:29:49.268Z,83.96
2023-03-24T02:33:55.226Z,84.37
2023-03-24T02:37:53.327Z,83.44
2023-03-24T02:41:25.250Z,83.24
2023-03-24T02:44:58.852Z,83.27
2023-03-24T02:48:26.600Z,82.80
2023-03-24T02:51:54.164Z,82.65
2023-03-24T02:55:19.288Z,82.48
2023-03-24T02:58:48.547Z,82.37
2023-03-24T03:02:15.994Z,82.07
2023-03-24T03:05:48.707Z,81.48
2023-03-24T03:09:14.616Z,82.21
2023-03-24T03:12:39.229Z,81.82
2023-03-24T03:16:06.817Z,82.00
2023-03-24T03:19:34.046Z,81.45
2023-03-24T03:23:02.202Z,81.17
2023-03-24T03:26:28.565Z,81.15
2023-03-24T03:29:55.103Z,80.69
2023-03-24T03:33:25.247Z,80.76
2023-03-24T03:36:51.628Z,80.54
2023-03-24T03:40:18.302Z,80.66
2023-03-24T03:43:44.559Z,80.29
2023-03-24T03:47:06.443Z,81.19
2023-03-24T03:50:36.030Z,81.11
2023-03-24T03:54:03.792Z,81.55
2023-03-24T03:57:27.851Z,81.62
2023-03-24T04:01:07.246Z,81.57
2023-03-24T04:05:05.622Z,81.59
2023-03-24T04:08:57.798Z,81.85
2023-03-24T04:12:40.231Z,81.93
2023-03-24T04:16:36.461Z,82.31
2023-03-24T04:20:11.999Z,83.34
2023-03-24T04:23:44.655Z,82.86
2023-03-24T04:27:14.625Z,83.46
2023-03-24T04:30:43.017Z,83.14
2023-03-24T04:34:17.250Z,84.01
2023-03-24T04:37:40.074Z,83.50
2023-03-24T04:41:09.698Z,84.03
2023-03-24T04:44:35.270Z,83.60
2023-03-24T04:48:21.395Z,84.52
2023-03-24T04:52:02.944Z,84.21
2023-03-24T04:55:53.838Z,84.00
2023-03-24T04:59:46.194Z,84.50
2023-03-24T05:03:09.328Z,84.17
2023-03-24T05:06:31.348Z,84.70
2023-03-24T05:09:53.357Z,84.43
2023-03-24T05:13:15.898Z,84.27
2023-03-24T05:16:45.998Z,84.20
2023-03-24T05:20:11.056Z,84.79
2023-03-24T05:23:35.350Z,84.73
2023-03-24T05:26:58.215Z,84.21
2023-03-24T05:30:21.008Z,84.94
2023-03-24T05:33:47.135Z,84.31
2023-03-24T05:37:14.225Z,85.19
2023-03-24T05:40:37.242Z,85.12
2023-03-24T05:44:09.295Z,84.42
2023-03-24T05:47:30.808Z,85.14
2023-03-24T05:50:54.862Z,84.47
2023-03-24T05:54:17.092Z,84.27
2023-03-24T05:57:41.549Z,84.49
2023-03-24T06:01:21.678Z,85.26
2023-03-24T06:04:50.971Z,84.50
2023-03-24T06:08:18.831Z,85.00
2023-03-24T06:11:40.815Z,84.80
2023-03-24T06:15:05.682Z,84.89
2023-03-24T06:18:27.937Z,84.95
2023-03-24T06:21:52.218Z,84.72
2023-03-24T06:25:21.630Z,85.53
2023-03-24T06:28:56.284Z,85.01
2023-03-24T06:32:21.050Z,84.80
2023-03-24T06:35:43.711Z,84.75
2023-03-24T06:39:09.027Z,84.96
2023-03-24T06:42:33.303Z,84.52
2023-03-24T06:45:54.898Z,84.77
2023-03-24T06:49:19.027Z,84.66
2023-03-24T06:52:41.233Z,84.50
2023-03-24T06:56:06.213Z,84.32
2023-03-24T06:59:35.355Z,84.09
2023-03-24T07:02:57.315Z,83.95
2023-03-24T07:06:19.733Z,84.06
2023-03-24T07:09:46.196Z,84.23
2023-03-24T07:13:08.850Z,84.28
2023-03-24T07:16:34.705Z,84.71
2023-03-24T07:20:11.190Z,84.68
2023-03-24T07:23:46.436Z,84.83
2023-03-24T07:27:12.899Z,85.06
2023-03-24T07:30:40.530Z,85.06
2023-03-24T07:34:05.384Z,84.71
2023-03-24T07:37:29.477Z,84.79
2023-03-24T07:40:51.311Z,84.68
2023-03-24T07:44:13.390Z,84.92
2023-03-24T07:47:40.685Z,84.52
2023-03-24T07:51:03.862Z,84.60
2023-03-24T07:54:43.792Z,84.01
2023-03-24T07:58:15.109Z,84.02
2023-03-24T08:01:54.821Z,83.45
2023-03-24T08:05:39.294Z,83.08
2023-03-24T08:09:15.492Z,82.11
2023-03-24T08:12:37.339Z,82.02
2023-03-24T08:15:58.870Z,81.83
2023-03-24T08:19:20.758Z,82.22
2023-03-24T08:22:43.615Z,82.29
2023-03-24T08:26:10.729Z,82.04
2023-03-24T08:29:33.855Z,83.34
2023-03-24T08:32:57.241Z,83.64
2023-03-24T08:36:19.261Z,83.49
2023-03-24T08:39:40.755Z,83.59
2023-03-24T08:43:08.820Z,83.53
2023-03-24T08:46:30.912Z,83.42
2023-03-24T08:49:57.615Z,83.60
2023-03-24T08:53:19.459Z,83.10
2023-03-24T08:56:41.471Z,83.01
2023-03-24T09:00:11.948Z,82.62
2023-03-24T09:03:33.710Z,82.05
2023-03-24T09:07:02.711Z,81.76
2023-03-24T09:10:24.759Z,82.00
2023-03-24T09:13:47.313Z,81.25
2023-03-24T09:17:10.888Z,81.09
2023-03-24T09:20:32.695Z,81.11
2023-03-24T09:23:54.642Z,79.63
2023-03-24T09:27:16.855Z,79.83
2023-03-24T09:30:38.758Z,79.77
2023-03-24T09:34:04.316Z,79.33
2023-03-24T09:37:25.963Z,79.45
2023-03-24T09:40:52.113Z,78.68
2023-03-24T09:44:24.254Z,78.42
2023-03-24T09:47:50.464Z,77.79
2023-03-24T09:51:19.968Z,77.44
2023-03-24T09:54:47.934Z,78.24
2023-03-24T09:58:14.440Z,77.19
2023-03-24T10:01:36.850Z,77.18
2023-03-24T10:04:59.424Z,77.56
2023-03-24T10:08:29.442Z,77.06
2023-03-24T10:12:02.995Z,77.96
2023-03-24T10:15:49.606Z,77.19
2023-03-24T10:19:24.507Z,76.28
2023-03-24T10:22:57.198Z,75.40
2023-03-24T10:26:32.848Z,75.16
2023-03-24T10:30:00.170Z,74.80
2023-03-24T10:33:22.227Z,73.70
2023-03-24T10:36:44.872Z,73.94
2023-03-24T10:40:16.334Z,73.33
2023-03-24T10:43:39.766Z,73.08
2023-03-24T10:47:07.414Z,73.30
2023-03-24T10:50:31.441Z,72.49
2023-03-24T10:54:11.107Z,73.43
2023-03-24T10:57:33.032Z,72.06
2023-03-24T11:00:56.848Z,71.58
2023-03-24T11:04:20.860Z,71.71
2023-03-24T11:07:45.243Z,71.02
2023-03-24T11:11:30.437Z,69.52
2023-03-24T11:14:53.293Z,70.13
2023-03-24T11:18:18.168Z,70.22
2023-03-24T11:21:40.254Z,68.63
2023-03-24T11:25:02.592Z,68.28
2023-03-24T11:28:28.333Z,67.50
2023-03-24T11:31:54.772Z,66.60
2023-03-24T11:35:19.559Z,62.16
2023-03-24T11:38:42.084Z,63.01
2023-03-24T11:42:17.060Z,63.13
2023-03-24T11:45:42.486Z,63.93
2023-03-24T11:49:06.509Z,61.66
2023-03-24T11:52:34.001Z,61.60
2023-03-24T11:56:02.723Z,61.31
2023-03-24T11:59:33.969Z,61.38
2023-03-24T12:03:37.358Z,61.46
2023-03-24T12:07:15.672Z,61.08
2023-03-24T12:10:49.348Z,61.24
2023-03-24T12:14:11.451Z,61.41
2023-03-24T12:17:39.904Z,61.64
2023-03-24T12:21:10.306Z,59.95
2023-03-24T12:24:51.352Z,59.58
2023-03-24T12:28:31.453Z,59.18
2023-03-24T12:32:06.045Z,59.13
2023-03-24T12:35:45.740Z,58.68
2023-03-24T12:39:11.797Z,55.08
2023-03-24T12:42:39.757Z,55.35
2023-03-24T12:46:10.549Z,53.49
2023-03-24T12:49:47.347Z,54.62
2023-03-24T12:53:23.141Z,54.71
2023-03-24T12:56:49.886Z,55.79
2023-03-24T13:00:18.037Z,55.54
2023-03-24T13:03:45.379Z,53.27
2023-03-24T13:07:10.263Z,54.43
2023-03-24T13:10:40.415Z,51.78
2023-03-24T13:14:05.242Z,52.86
2023-03-24T13:17:32.134Z,53.15
2023-03-24T13:20:57.705Z,52.51
2023-03-24T13:24:21.154Z,53.27
2023-03-24T13:27:47.669Z,54.70
2023-03-24T13:31:12.556Z,55.01
2023-03-24T13:34:39.327Z,53.63
2023-03-24T13:38:10.278Z,54.28
2023-03-24T13:41:37.603Z,54.21
2023-03-24T13:45:02.061Z,53.58
2023-03-24T13:48:33.386Z,54.13
2023-03-24T13:51:55.190Z,53.67
2023-03-24T13:55:24.536Z,53.13
2023-03-24T13:58:49.452Z,52.48
2023-03-24T14:02:24.585Z,52.73
2023-03-24T14:06:00.209Z,51.65
2023-03-24T14:09:23.479Z,51.84
2023-03-24T14:12:56.178Z,51.69
2023-03-24T14:16:37.544Z,51.81
2023-03-24T14:20:14.948Z,51.71
2023-03-24T14:23:39.227Z,48.62
2023-03-24T14:27:00.854Z,49.23
2023-03-24T14:30:28.379Z,49.30
2023-03-24T14:34:10.648Z,50.04
2023-03-24T14:37:32.733Z,51.40
2023-03-24T14:40:59.094Z,50.17
2023-03-24T14:45:02.514Z,49.32
2023-03-24T14:48:43.013Z,49.65
2023-03-24T14:52:14.175Z,49.20
2023-03-24T14:55:36.068Z,48.88
2023-03-24T14:59:03.480Z,49.76
2023-03-24T15:02:37.114Z,49.73
2023-03-24T15:06:13.666Z,50.35
2023-03-24T15:09:39.045Z,49.62
2023-03-24T15:13:01.022Z,49.41
2023-03-24T15:16:25.908Z,49.58
2023-03-24T15:19:52.557Z,49.14
2023-03-24T15:23:19.611Z,48.79
2023-03-24T15:26:41.067Z,49.78
2023-03-24T15:30:03.177Z,49.32
2023-03-24T15:33:26.112Z,50.08
2023-03-24T15:36:50.664Z,48.25
2023-03-24T15:40:36.098Z,47.33
2023-03-24T15:43:58.889Z,46.93
2023-03-24T15:47:23.918Z,46.28
2023-03-24T15:50:57.345Z,45.51
2023-03-24T15:54:23.070Z,45.97
2023-03-24T15:57:48.515Z,44.88
2023-03-24T16:01:14.810Z,44.42
2023-03-24T16:04:38.459Z,44.69
2023-03-24T16:08:04.240Z,45.15
2023-03-24T16:11:26.160Z,45.04
2023-03-24T16:14:49.307Z,45.15
2023-03-24T16:18:16.149Z,46.48
2023-03-24T16:21:37.721Z,47.20
2023-03-24T16:24:59.329Z,46.26
2023-03-24T16:28:23.510Z,45.96
2023-03-24T16:31:49.735Z,46.19
2023-03-24T16:35:12.026Z,46.19
2023-03-24T16:38:34.205Z,46.25
2023-03-24T16:41:56.548Z,46.56
2023-03-24T16:45:18.074Z,47.21
2023-03-24T16:48:41.891Z,48.33
2023-03-24T16:52:03.511Z,48.77
2023-03-24T16:55:25.529Z,48.97
2023-03-24T16:58:48.166Z,49.45
2023-03-24T17:02:11.333Z,49.33
2023-03-24T17:05:40.487Z,50.08
2023-03-24T17:09:04.427Z,50.32
2023-03-24T17:12:26.222Z,50.90
2023-03-24T17:15:48.028Z,50.94
2023-03-24T17:19:09.870Z,51.16
2023-03-24T17:22:33.182Z,51.96
2023-03-24T17:25:54.802Z,51.32
2023-03-24T17:29:16.765Z,52.18
2023-03-24T17:32:38.960Z,52.56
2023-03-24T17:36:00.829Z,53.49
2023-03-24T17:39:24.196Z,52.94
2023-03-24T17:42:47.303Z,53.44
2023-03-24T17:46:09.375Z,53.62
2023-03-24T17:49:31.513Z,54.24
2023-03-24T17:52:53.382Z,54.47
2023-03-24T17:56:16.675Z,55.38
2023-03-24T17:59:38.666Z,56.00
2023-03-24T18:03:00.551Z,56.30
2023-03-24T18:06:22.528Z,55.48
2023-03-24T18:09:44.053Z,56.18
2023-03-24T18:13:08.001Z,57.21
2023-03-24T18:16:35.423Z,57.19
2023-03-24T18:19:58.286Z,58.13
2023-03-24T18:23:20.711Z,58.07
2023-03-24T18:26:42.708Z,57.65
2023-03-24T18:30:06.748Z,56.88
2023-03-24T18:33:31.522Z,57.09
2023-03-24T18:36:53.375Z,57.45
2023-03-24T18:40:15.814Z,57.78
2023-03-24T18:43:39.428Z,57.88
2023-03-24T18:47:03.603Z,58.38
2023-03-24T18:50:25.453Z,58.15
2023-03-24T18:53:47.619Z,58.57
2023-03-24T18:57:09.050Z,59.26
2023-03-24T19:00:31.025Z,59.24
2023-03-24T19:03:54.508Z,60.11
2023-03-24T19:07:24.278Z,60.11
2023-03-24T19:10:46.459Z,59.55
2023-03-24T19:14:08.388Z,59.76
2023-03-24T19:17:30.426Z,61.16
2023-03-24T19:20:56.174Z,60.88
2023-03-24T19:24:17.874Z,61.14
2023-03-24T19:27:41.306Z,62.06
2023-03-24T19:31:08.876Z,63.07
2023-03-24T19:34:31.085Z,63.14
2023-03-24T19:37:54.553Z,61.09
2023-03-24T19:41:16.617Z,61.71
2023-03-24T19:44:38.337Z,62.10
2023-03-24T19:48:00.435Z,61.87
2023-03-24T19:51:23.773Z,61.51
2023-03-24T19:54:46.635Z,61.35
2023-03-24T19:58:08.644Z,61.43
2023-03-24T20:01:34.955Z,61.18
2023-03-24T20:04:56.823Z,61.40
2023-03-24T20:08:20.558Z,60.73
2023-03-24T20:11:44.058Z,60.88
2023-03-24T20:15:06.816Z,60.67
2023-03-24T20:18:28.584Z,61.48
2023-03-24T20:21:50.501Z,61.11
2023-03-24T20:25:14.082Z,61.47
2023-03-24T20:28:37.303Z,61.36
2023-03-24T20:31:59.403Z,61.96
2023-03-24T20:35:21.640Z,61.67
2023-03-24T20:38:43.416Z,62.53
2023-03-24T20:42:05.213Z,62.15
2023-03-24T20:45:28.264Z,61.88
2023-03-24T20:48:50.102Z,60.96
2023-03-24T20:52:12.538Z,61.75
2023-03-24T20:55:34.462Z,61.16
2023-03-24T20:58:56.027Z,60.68
2023-03-24T21:02:20.336Z,60.75
2023-03-24T21:05:42.345Z,61.13
2023-03-24T21:09:04.836Z,60.90
2023-03-24T21:12:26.530Z,60.19
2023-03-24T21:15:48.618Z,60.46
2023-03-24T21:19:12.017Z,60.88
2023-03-24T21:22:47.500Z,60.00
2023-03-24T21:26:12.562Z,60.35
2023-03-24T21:29:34.649Z,60.31
2023-03-24T21:32:57.847Z,59.85
2023-03-24T21:36:22.500Z,59.98
2023-03-24T21:39:44.382Z,60.36
2023-03-24T21:43:06.712Z,60.19
2023-03-24T21:46:28.310Z,61.00
2023-03-24T21:49:49.700Z,61.06
2023-03-24T21:53:15.115Z,60.57
2023-03-24T21:56:38.231Z,61.67
2023-03-24T22:00:01.729Z,61.72
2023-03-24T22:03:34.513Z,62.31
2023-03-24T22:06:56.290Z,62.38
2023-03-24T22:10:22.630Z,62.63
2023-03-24T22:13:46.897Z,63.25
2023-03-24T22:17:08.892Z,63.06
2023-03-24T22:20:31.975Z,64.00
2023-03-24T22:23:53.805Z,63.85
2023-03-24T22:27:17.890Z,64.33
2023-03-24T22:30:41.616Z,64.91
2023-03-24T22:34:03.230Z,64.21
2023-03-24T22:37:25.098Z,64.38
2023-03-24T22:40:46.980Z,65.07
2023-03-24T22:44:10.261Z,65.04
2023-03-24T22:47:32.091Z,64.86
2023-03-24T22:50:54.310Z,64.37
2023-03-24T22:54:16.019Z,64.30
2023-03-24T22:57:37.819Z,64.53
2023-03-24T23:01:00.589Z,64.68
2023-03-24T23:04:22.665Z,65.05
2023-03-24T23:07:45.025Z,65.24
2023-03-24T23:11:08.233Z,65.88
2023-03-24T23:14:30.085Z,65.67
2023-03-24T23:17:53.358Z,66.16
2023-03-24T23:21:18.109Z,65.70
2023-03-24T23:24:40.276Z,66.03
2023-03-24T23:28:02.549Z,66.13
2023-03-24T23:31:26.356Z,66.50
2023-03-24T23:34:50.391Z,66.55
2023-03-24T23:38:12.316Z,66.87
2023-03-24T23:41:33.778Z,67.18
2023-03-24T23:44:55.669Z,67.23
2023-03-24T23:48:17.274Z,67.22
2023-03-24T23:51:39.894Z,67.32
2023-03-24T23:55:02.250Z,67.65
2023-03-24T23:58:23.802Z,67.22
